Main page
METAR-TAF:

METAR-TAF

Airports :

Göteborg City Airport

Gothenburg, Sweden

latitude: 57-47N, longitude: 011-53E, elevation: 20 m

Current weather observation

The report was made 39 minutes ago, at 23:50 UTC
Wind 3 kt from the South/Southwest
Temperature 10°C
Humidity 87%
Pressure 1012 hPa
Visibility 10 km or more

METAR: ESGP 132350Z AUTO 20003KT 9999 SCT024/// OVC064/// 10/08 Q1012

Time: 02:29 (00:29 UTC)

Forecast

The report was made 9 hours and 59 minutes ago, at 14:30 UTC
Forecast valid from 13 at 15 UTC to 13 at 17 UTC
Wind 12 kt from the West
Visibility 10 km or more
Scattered clouds at a height of 3500 ft
Probability 40%
from 13 at 15 UTC to 13 at 17 UTC
Broken clouds at a height of 3500 ft, Towering cumulus.

TAF: ESGP 131430Z 1315/1317 26012KT 9999 SCT035 PROB40 1315/1317 BKN035TCU

Weather observations and forecasts of more than 4000 airports (METAR and TAF reports).

The available stations are represented by yellow and red dots on the map.

Hover mouse over dot to see the name of the station.

Then click to see weather observations and forecasts.

To change the map : click on the green buttons with a black cross to zoom in, on the green button with a dash to zoom out, or on the green arrows for adjacent maps.


METAR-TAF: